createdAt,value
2018-08-23T00:00:46.990Z,25.29
2018-08-23T00:05:31.504Z,25.23
2018-08-23T00:10:15.067Z,25.26
2018-08-23T00:15:02.980Z,25.13
2018-08-23T00:19:46.368Z,24.83
2018-08-23T00:24:29.868Z,25.07
2018-08-23T00:29:17.639Z,24.89
2018-08-23T00:34:01.270Z,24.90
2018-08-23T00:38:44.559Z,25.01
2018-08-23T00:43:27.849Z,24.84
2018-08-23T00:48:11.405Z,24.73
2018-08-23T00:52:54.718Z,24.63
2018-08-23T00:57:38.189Z,24.80
2018-08-23T01:02:21.475Z,24.70
2018-08-23T01:07:05.810Z,24.65
2018-08-23T01:11:49.068Z,24.69
2018-08-23T01:16:33.604Z,24.56
2018-08-23T01:21:17.230Z,24.51
2018-08-23T01:26:01.618Z,24.42
2018-08-23T01:30:46.293Z,24.56
2018-08-23T01:35:29.761Z,24.60
2018-08-23T01:40:13.163Z,24.38
2018-08-23T01:44:56.677Z,24.50
2018-08-23T01:49:40.062Z,24.51
2018-08-23T01:54:24.634Z,24.37
2018-08-23T01:59:07.949Z,24.18
2018-08-23T02:03:51.377Z,24.24
2018-08-23T02:08:34.681Z,24.08
2018-08-23T02:13:23.208Z,24.13
2018-08-23T02:18:06.563Z,24.09
2018-08-23T02:22:50.025Z,24.20
2018-08-23T02:27:33.368Z,24.33
2018-08-23T02:32:16.741Z,24.17
2018-08-23T02:37:00.293Z,24.21
2018-08-23T02:41:43.592Z,23.95
2018-08-23T02:46:32.910Z,24.08
2018-08-23T02:51:16.274Z,24.01
2018-08-23T02:56:09.679Z,23.99
2018-08-23T03:00:52.951Z,24.14
2018-08-23T03:05:39.739Z,23.82
2018-08-23T03:10:23.057Z,23.92
2018-08-23T03:15:07.548Z,23.86
2018-08-23T03:20:11.209Z,23.99
2018-08-23T03:24:56.437Z,23.82
2018-08-23T03:29:39.714Z,23.79
2018-08-23T03:34:24.288Z,23.83
2018-08-23T03:39:09.687Z,24.06
2018-08-23T03:43:53.093Z,23.75
2018-08-23T03:48:36.433Z,24.00
2018-08-23T03:53:21.799Z,23.79
2018-08-23T03:58:05.148Z,23.77
2018-08-23T04:02:48.562Z,23.82
2018-08-23T04:07:32.847Z,23.88
2018-08-23T04:12:16.267Z,23.72
2018-08-23T04:16:59.702Z,23.77
2018-08-23T04:21:43.976Z,23.97
2018-08-23T04:26:28.586Z,24.06
2018-08-23T04:31:11.919Z,23.91
2018-08-23T04:35:56.320Z,24.08
2018-08-23T04:40:40.601Z,24.01
2018-08-23T04:45:26.973Z,24.26
2018-08-23T04:50:10.369Z,24.22
2018-08-23T04:54:54.778Z,24.10
2018-08-23T04:59:38.259Z,24.16
2018-08-23T05:04:21.655Z,24.31
2018-08-23T05:09:08.798Z,24.41
2018-08-23T05:13:52.274Z,24.56
2018-08-23T05:18:35.657Z,24.54
2018-08-23T05:23:20.309Z,24.51
2018-08-23T05:28:19.502Z,24.69
2018-08-23T05:33:08.114Z,24.80
2018-08-23T05:37:51.493Z,24.72
2018-08-23T05:42:50.161Z,24.77
2018-08-23T05:47:33.770Z,24.90
2018-08-23T05:52:17.097Z,25.01
2018-08-23T05:57:00.481Z,25.05
2018-08-23T06:01:44.866Z,25.29
2018-08-23T06:06:29.023Z,25.14
2018-08-23T06:11:12.337Z,25.36
2018-08-23T06:15:57.278Z,25.43
2018-08-23T06:20:40.665Z,25.53
2018-08-23T06:25:24.233Z,25.70
2018-08-23T06:30:07.364Z,25.81
2018-08-23T06:34:52.418Z,25.76
2018-08-23T06:39:37.496Z,25.86
2018-08-23T06:44:21.633Z,26.01
2018-08-23T06:49:05.971Z,26.26
2018-08-23T06:53:52.450Z,26.45
2018-08-23T06:58:35.736Z,26.38
2018-08-23T07:03:19.256Z,26.60
2018-08-23T07:08:14.130Z,26.91
2018-08-23T07:12:59.279Z,26.91
2018-08-23T07:17:48.313Z,27.00
2018-08-23T07:22:33.733Z,27.20
2018-08-23T07:27:18.933Z,27.35
2018-08-23T07:32:05.647Z,27.15
2018-08-23T07:38:18.460Z,27.34
2018-08-23T07:43:02.194Z,27.70
2018-08-23T07:47:50.558Z,27.65
2018-08-23T07:52:34.004Z,27.84
2018-08-23T07:57:17.465Z,27.90
2018-08-23T08:02:00.774Z,28.02
2018-08-23T08:06:45.181Z,28.01
2018-08-23T08:11:34.879Z,28.26
2018-08-23T08:16:18.378Z,28.30
2018-08-23T08:21:03.119Z,28.55
2018-08-23T08:25:47.489Z,28.74
2018-08-23T08:30:42.423Z,28.52
2018-08-23T08:35:26.029Z,28.74
2018-08-23T08:40:18.650Z,29.08
2018-08-23T08:45:09.389Z,29.37
2018-08-23T08:49:52.916Z,28.83
2018-08-23T08:54:36.615Z,28.94
2018-08-23T08:59:20.112Z,29.11
2018-08-23T09:04:04.675Z,29.70
2018-08-23T09:08:48.478Z,30.18
2018-08-23T09:13:37.459Z,29.68
2018-08-23T09:18:25.014Z,30.02
2018-08-23T09:23:08.469Z,29.84
2018-08-23T09:27:52.567Z,29.67
2018-08-23T09:32:37.115Z,30.05
2018-08-23T09:37:20.354Z,30.21
2018-08-23T09:42:03.563Z,30.42
2018-08-23T09:46:52.974Z,29.88
2018-08-23T09:51:36.432Z,29.98
2018-08-23T09:56:26.163Z,30.38
2018-08-23T10:01:14.753Z,30.35
2018-08-23T10:06:02.434Z,31.06
2018-08-23T10:10:51.125Z,30.50
2018-08-23T10:15:42.338Z,31.00
2018-08-23T10:20:30.944Z,30.33
2018-08-23T10:25:31.348Z,30.41
2018-08-23T10:30:14.738Z,30.54
2018-08-23T10:34:58.330Z,31.05
2018-08-23T10:39:41.772Z,30.93
2018-08-23T10:44:25.327Z,31.20
2018-08-23T10:49:08.740Z,30.68
2018-08-23T10:53:52.366Z,30.62
2018-08-23T10:58:35.820Z,31.18
2018-08-23T11:03:19.599Z,30.77
2018-08-23T11:08:08.367Z,30.56
2018-08-23T11:12:57.185Z,30.90
2018-08-23T11:17:46.925Z,30.56
2018-08-23T11:22:35.706Z,30.60
2018-08-23T11:27:19.035Z,30.74
2018-08-23T11:32:03.360Z,30.61
2018-08-23T11:36:46.752Z,30.76
2018-08-23T11:41:30.209Z,30.84
2018-08-23T11:46:18.327Z,30.98
2018-08-23T11:51:01.625Z,31.08
2018-08-23T11:55:46.213Z,31.16
2018-08-23T12:00:30.889Z,30.81
2018-08-23T12:05:16.994Z,30.74
2018-08-23T12:10:00.543Z,30.88
2018-08-23T12:14:47.859Z,30.66
2018-08-23T12:19:31.101Z,30.95
2018-08-23T12:24:14.660Z,31.00
2018-08-23T12:29:03.393Z,31.00
2018-08-23T12:33:46.925Z,30.47
2018-08-23T12:38:35.779Z,30.46
2018-08-23T12:43:21.686Z,30.63
2018-08-23T12:48:04.924Z,30.41
2018-08-23T12:52:48.481Z,30.44
2018-08-23T12:57:31.866Z,30.44
2018-08-23T13:02:15.598Z,30.24
2018-08-23T13:06:59.006Z,30.40
2018-08-23T13:11:42.359Z,30.46
2018-08-23T13:16:27.005Z,30.12
2018-08-23T13:21:12.528Z,30.68
2018-08-23T13:25:58.594Z,30.51
2018-08-23T13:30:42.450Z,30.29
2018-08-23T13:35:26.282Z,30.29
2018-08-23T13:40:15.078Z,29.96
2018-08-23T13:44:59.567Z,29.85
2018-08-23T13:49:42.993Z,29.75
2018-08-23T13:54:30.028Z,30.19
2018-08-23T13:59:13.254Z,29.80
2018-08-23T14:03:57.729Z,30.08
2018-08-23T14:08:40.969Z,29.94
2018-08-23T14:13:24.572Z,29.44
2018-08-23T14:18:07.960Z,29.45
2018-08-23T14:22:52.379Z,29.19
2018-08-23T14:27:35.534Z,29.31
2018-08-23T14:32:18.994Z,29.50
2018-08-23T14:37:02.299Z,28.96
2018-08-23T14:41:45.735Z,29.07
2018-08-23T14:46:34.511Z,28.85
2018-08-23T14:51:19.087Z,28.94
2018-08-23T14:56:07.815Z,28.72
2018-08-23T15:00:51.219Z,28.75
2018-08-23T15:05:37.463Z,28.86
2018-08-23T15:10:20.845Z,28.63
2018-08-23T15:15:08.861Z,28.30
2018-08-23T15:19:52.049Z,28.53
2018-08-23T15:24:35.437Z,28.55
2018-08-23T15:29:18.960Z,28.31
2018-08-23T15:34:03.681Z,28.52
2018-08-23T15:38:47.044Z,28.01
2018-08-23T15:43:30.545Z,28.45
2018-08-23T15:48:14.078Z,28.42
2018-08-23T15:52:57.661Z,28.72
2018-08-23T15:57:40.969Z,28.50
2018-08-23T16:02:25.453Z,28.65
2018-08-23T16:07:08.848Z,28.44
2018-08-23T16:11:52.473Z,28.59
2018-08-23T16:16:46.239Z,28.35
2018-08-23T16:21:36.505Z,28.48
2018-08-23T16:26:19.833Z,28.62
2018-08-23T16:31:03.113Z,28.05
2018-08-23T16:35:46.504Z,28.05
2018-08-23T16:40:31.498Z,28.15
2018-08-23T16:45:16.000Z,27.82
2018-08-23T16:49:59.846Z,28.08
2018-08-23T16:54:43.404Z,27.97
2018-08-23T16:59:26.552Z,27.46
2018-08-23T17:04:10.148Z,27.89
2018-08-23T17:08:54.169Z,27.70
2018-08-23T17:13:38.315Z,27.54
2018-08-23T17:18:21.615Z,27.60
2018-08-23T17:23:05.209Z,27.65
2018-08-23T17:27:48.589Z,27.72
2018-08-23T17:32:35.230Z,27.78
2018-08-23T17:37:19.731Z,27.85
2018-08-23T17:42:03.218Z,28.17
2018-08-23T17:46:46.597Z,27.56
2018-08-23T17:51:30.536Z,27.77
2018-08-23T17:56:14.037Z,27.86
2018-08-23T18:00:57.438Z,27.85
2018-08-23T18:05:41.123Z,27.92
2018-08-23T18:10:24.566Z,27.98
2018-08-23T18:15:10.172Z,26.63
2018-08-23T18:19:53.536Z,27.26
2018-08-23T18:24:37.051Z,27.68
2018-08-23T18:29:20.901Z,27.56
2018-08-23T18:34:05.526Z,26.78
2018-08-23T18:38:49.756Z,27.66
2018-08-23T18:43:33.429Z,27.51
2018-08-23T18:48:16.858Z,27.67
2018-08-23T18:53:00.494Z,27.07
2018-08-23T18:57:43.892Z,27.27
2018-08-23T19:02:28.444Z,26.50
2018-08-23T19:07:17.121Z,27.57
2018-08-23T19:12:00.832Z,27.24
2018-08-23T19:16:49.791Z,27.45
2018-08-23T19:21:33.349Z,27.04
2018-08-23T19:26:16.784Z,27.43
2018-08-23T19:30:59.970Z,26.71
2018-08-23T19:35:43.261Z,27.05
2018-08-23T19:40:29.757Z,25.94
2018-08-23T19:45:14.392Z,25.11
2018-08-23T19:50:02.382Z,26.44
2018-08-23T19:54:45.870Z,26.89
2018-08-23T19:59:29.303Z,26.84
2018-08-23T20:04:13.960Z,26.76
2018-08-23T20:08:57.288Z,26.43
2018-08-23T20:13:41.732Z,26.00
2018-08-23T20:18:25.109Z,26.29
2018-08-23T20:23:09.570Z,25.81
2018-08-23T20:27:52.920Z,26.24
2018-08-23T20:32:37.163Z,26.28
2018-08-23T20:37:20.568Z,25.66
2018-08-23T20:42:04.015Z,25.77
2018-08-23T20:46:47.376Z,26.25
2018-08-23T20:51:32.643Z,26.31
2018-08-23T20:56:15.988Z,26.21
2018-08-23T21:00:59.481Z,26.07
2018-08-23T21:05:42.921Z,26.02
2018-08-23T21:10:26.286Z,26.21
2018-08-23T21:15:13.021Z,26.04
2018-08-23T21:19:56.435Z,26.29
2018-08-23T21:24:40.089Z,26.27
2018-08-23T21:29:23.268Z,25.89
2018-08-23T21:34:06.883Z,26.03
2018-08-23T21:38:50.309Z,25.80
2018-08-23T21:43:36.831Z,25.99
2018-08-23T21:48:20.491Z,25.95
2018-08-23T21:53:04.300Z,25.95
2018-08-23T21:57:47.768Z,25.76
2018-08-23T22:02:31.286Z,26.15
2018-08-23T22:07:15.349Z,25.51
2018-08-23T22:11:59.872Z,25.21
2018-08-23T22:16:44.332Z,24.96
2018-08-23T22:21:27.709Z,24.89
2018-08-23T22:26:11.165Z,25.17
2018-08-23T22:30:58.506Z,25.17
2018-08-23T22:35:42.058Z,25.54
2018-08-23T22:40:25.412Z,24.35
2018-08-23T22:45:08.726Z,24.50
2018-08-23T22:49:52.050Z,24.50
2018-08-23T22:54:36.594Z,24.50
2018-08-23T22:59:19.955Z,24.73
2018-08-23T23:04:09.720Z,24.98
2018-08-23T23:08:53.133Z,24.43
2018-08-23T23:13:36.609Z,24.48
2018-08-23T23:18:19.864Z,24.28
2018-08-23T23:23:04.370Z,24.47
2018-08-23T23:27:47.709Z,24.33
2018-08-23T23:32:31.065Z,24.53
2018-08-23T23:37:14.453Z,24.04
2018-08-23T23:41:57.990Z,23.96
2018-08-23T23:46:41.417Z,24.08
2018-08-23T23:51:24.889Z,24.07
2018-08-23T23:56:08.365Z,24.06
